Aérodrome :
LOGIN :

S'inscrire | Disclaimer

   EN    FR    IT 

 










Légende :    VFR   VFR Marginal   IFR   IFR Intensif   IFR Très Intensif
Visi : 
Plafond : 
>= 8 km
>= 3000ft
5 à 8 km
1000 à 3000 ft
1500m à 5 km
500 à 1000 ft
800 à 1500m
200 à 500 ft
< 800m
< 200 ft
Symboles :   Orages  Brouillard  Fortes neiges  Fortes précipitations  Vent > 20 kt
SIGMETs :   Divers  Orages  Givrage  Turbulence  Onde Orograph.  Cendres Volcan.







- Altitude de l'aérodrome : 375 ft
- Code IATA : MST


EHBK - Maastricht Aachen

DERNIER METAR :
  • 291725Z AUTO 05007KT 020V100 9999 NCD 12/01 Q1016 NOSIG

METARs EXPIRÉS :
  • 291655Z AUTO 05007KT 020V080 9999 NCD 12/01 Q1016 NOSIG
  • 291625Z AUTO 06006KT 010V140 9999 NSC 13/01 Q1016 NOSIG
  • 291555Z AUTO VRB04KT 9999 NCD 11/01 Q1017 NOSIG
  • 291525Z AUTO VRB03KT 9999 BKN048 13/02 Q1017 NOSIG
  • 291455Z AUTO 02005KT 310V080 9999 OVC046 12/03 Q1017 NOSIG

TAF TAF EHBK
Valide du 29 à 18h jusqu'au 01 à 00h UTC


291714Z 2918/3024 09005KT CAVOK
BECMG 3007/3010 14012G22KT
BECMG 3016/3019 11011KT
Pas de NOTAMs connus pour ce terrain.



MET'MAP, la Météo Aéronautique d'un coup d'oeil ! - Copyright ORBIFLY Décembre 2007 - Disclaimer

ORBIFLY MET'MAP TEAM :

Programmation & Développement : Alexandra Zaïnal
Conception & Développement : Baudouin d'Aumeries
Co-Programmation & Développement : Marc-Olivier Méhu
Soutien technique & logistique : Manuel Goepfert

Contact : metmap@orbifly.com




SOURCES & CREDITS :

   NOAA